sensor_id;sensor_type;location;lat;lon;timestamp;pressure;altitude;pressure_sealevel;temperature;humidity
57250;BME280;43102;52.014;-0.680;2023-05-19T00:00:00;101866;;;16.87;53.24
57250;BME280;43102;52.014;-0.680;2023-05-19T00:01:00;101864;;;16.89;53.16
57250;BME280;43102;52.014;-0.680;2023-05-19T00:02:00;101864;;;16.89;53.16
57250;BME280;43102;52.014;-0.680;2023-05-19T00:03:00;101864;;;16.89;53.16
57250;BME280;43102;52.014;-0.680;2023-05-19T00:04:00;101864;;;16.89;53.16
57250;BME280;43102;52.014;-0.680;2023-05-19T00:05:00;101864;;;16.89;53.16
57250;BME280;43102;52.014;-0.680;2023-05-19T00:06:00;101859;;;16.75;53.17
57250;BME280;43102;52.014;-0.680;2023-05-19T00:07:00;101859;;;16.75;53.17
57250;BME280;43102;52.014;-0.680;2023-05-19T00:08:00;101859;;;16.75;53.17
57250;BME280;43102;52.014;-0.680;2023-05-19T00:09:02;101859;;;16.75;53.17
57250;BME280;43102;52.014;-0.680;2023-05-19T00:10:00;101859;;;16.75;53.17
57250;BME280;43102;52.014;-0.680;2023-05-19T00:11:00;101850;;;16.84;53.14
57250;BME280;43102;52.014;-0.680;2023-05-19T00:12:00;101850;;;16.84;53.14
57250;BME280;43102;52.014;-0.680;2023-05-19T00:13:00;101850;;;16.84;53.14
57250;BME280;43102;52.014;-0.680;2023-05-19T00:14:00;101850;;;16.84;53.14
57250;BME280;43102;52.014;-0.680;2023-05-19T00:15:00;101850;;;16.84;53.14
57250;BME280;43102;52.014;-0.680;2023-05-19T00:16:00;101854;;;16.83;52.95
57250;BME280;43102;52.014;-0.680;2023-05-19T00:17:00;101854;;;16.83;52.95
57250;BME280;43102;52.014;-0.680;2023-05-19T00:18:00;101854;;;16.83;52.95
57250;BME280;43102;52.014;-0.680;2023-05-19T00:19:01;101854;;;16.83;52.95
57250;BME280;43102;52.014;-0.680;2023-05-19T00:20:00;101854;;;16.83;52.95
57250;BME280;43102;52.014;-0.680;2023-05-19T00:21:00;101851;;;16.72;52.69
57250;BME280;43102;52.014;-0.680;2023-05-19T00:22:00;101851;;;16.72;52.69
57250;BME280;43102;52.014;-0.680;2023-05-19T00:23:00;101851;;;16.72;52.69
57250;BME280;43102;52.014;-0.680;2023-05-19T00:24:00;101851;;;16.72;52.69
57250;BME280;43102;52.014;-0.680;2023-05-19T00:25:00;101851;;;16.72;52.69
57250;BME280;43102;52.014;-0.680;2023-05-19T00:26:00;101854;;;16.46;52.90
57250;BME280;43102;52.014;-0.680;2023-05-19T00:27:00;101854;;;16.46;52.90
57250;BME280;43102;52.014;-0.680;2023-05-19T00:28:00;101854;;;16.46;52.90
57250;BME280;43102;52.014;-0.680;2023-05-19T00:29:00;101854;;;16.46;52.90
57250;BME280;43102;52.014;-0.680;2023-05-19T00:30:00;101854;;;16.46;52.90
57250;BME280;43102;52.014;-0.680;2023-05-19T00:31:00;101857;;;16.39;53.10
57250;BME280;43102;52.014;-0.680;2023-05-19T00:32:00;101857;;;16.39;53.10
57250;BME280;43102;52.014;-0.680;2023-05-19T00:33:00;101857;;;16.39;53.10
57250;BME280;43102;52.014;-0.680;2023-05-19T00:34:00;101857;;;16.39;53.10
57250;BME280;43102;52.014;-0.680;2023-05-19T00:35:00;101857;;;16.39;53.10
57250;BME280;43102;52.014;-0.680;2023-05-19T00:36:00;101851;;;16.32;53.02
57250;BME280;43102;52.014;-0.680;2023-05-19T00:37:00;101851;;;16.32;53.02
57250;BME280;43102;52.014;-0.680;2023-05-19T00:38:00;101851;;;16.32;53.02
57250;BME280;43102;52.014;-0.680;2023-05-19T00:39:00;101851;;;16.32;53.02
57250;BME280;43102;52.014;-0.680;2023-05-19T00:40:00;101851;;;16.32;53.02
57250;BME280;43102;52.014;-0.680;2023-05-19T00:41:00;101845;;;16.36;52.84
57250;BME280;43102;52.014;-0.680;2023-05-19T00:42:00;101845;;;16.36;52.84
57250;BME280;43102;52.014;-0.680;2023-05-19T00:43:00;101845;;;16.36;52.84
57250;BME280;43102;52.014;-0.680;2023-05-19T00:44:00;101845;;;16.36;52.84
57250;BME280;43102;52.014;-0.680;2023-05-19T00:45:00;101845;;;16.36;52.84
57250;BME280;43102;52.014;-0.680;2023-05-19T00:46:00;101841;;;16.40;52.85
57250;BME280;43102;52.014;-0.680;2023-05-19T00:47:00;101841;;;16.40;52.85
57250;BME280;43102;52.014;-0.680;2023-05-19T00:48:00;101841;;;16.40;52.85
57250;BME280;43102;52.014;-0.680;2023-05-19T00:49:00;101841;;;16.40;52.85
57250;BME280;43102;52.014;-0.680;2023-05-19T00:50:00;101841;;;16.40;52.85
57250;BME280;43102;52.014;-0.680;2023-05-19T00:51:00;101843;;;16.41;52.94
57250;BME280;43102;52.014;-0.680;2023-05-19T00:52:00;101843;;;16.41;52.94
57250;BME280;43102;52.014;-0.680;2023-05-19T00:53:00;101843;;;16.41;52.94
57250;BME280;43102;52.014;-0.680;2023-05-19T00:54:00;101843;;;16.41;52.94
57250;BME280;43102;52.014;-0.680;2023-05-19T00:55:00;101843;;;16.41;52.94
57250;BME280;43102;52.014;-0.680;2023-05-19T00:56:00;101850;;;16.33;53.12
57250;BME280;43102;52.014;-0.680;2023-05-19T00:57:00;101850;;;16.33;53.12
57250;BME280;43102;52.014;-0.680;2023-05-19T00:58:00;101850;;;16.33;53.12
57250;BME280;43102;52.014;-0.680;2023-05-19T00:59:00;101850;;;16.33;53.12
57250;BME280;43102;52.014;-0.680;2023-05-19T01:00:00;101850;;;16.33;53.12
57250;BME280;43102;52.014;-0.680;2023-05-19T01:01:00;101852;;;16.32;53.10
57250;BME280;43102;52.014;-0.680;2023-05-19T01:02:00;101852;;;16.32;53.10
57250;BME280;43102;52.014;-0.680;2023-05-19T01:03:00;101852;;;16.32;53.10
57250;BME280;43102;52.014;-0.680;2023-05-19T01:04:00;101852;;;16.32;53.10
57250;BME280;43102;52.014;-0.680;2023-05-19T01:05:00;101852;;;16.32;53.10
57250;BME280;43102;52.014;-0.680;2023-05-19T01:06:00;101855;;;16.31;53.19
57250;BME280;43102;52.014;-0.680;2023-05-19T01:07:00;101855;;;16.31;53.19
57250;BME280;43102;52.014;-0.680;2023-05-19T01:08:00;101855;;;16.31;53.19
57250;BME280;43102;52.014;-0.680;2023-05-19T01:09:00;101855;;;16.31;53.19
57250;BME280;43102;52.014;-0.680;2023-05-19T01:10:00;101855;;;16.31;53.19
57250;BME280;43102;52.014;-0.680;2023-05-19T01:11:00;101860;;;16.34;53.24
57250;BME280;43102;52.014;-0.680;2023-05-19T01:12:00;101860;;;16.34;53.24
57250;BME280;43102;52.014;-0.680;2023-05-19T01:13:00;101860;;;16.34;53.24
57250;BME280;43102;52.014;-0.680;2023-05-19T01:14:00;101860;;;16.34;53.24
57250;BME280;43102;52.014;-0.680;2023-05-19T01:15:00;101860;;;16.34;53.24
57250;BME280;43102;52.014;-0.680;2023-05-19T01:17:03;101863;;;16.35;53.10
57250;BME280;43102;52.014;-0.680;2023-05-19T01:18:00;101863;;;16.35;53.10
57250;BME280;43102;52.014;-0.680;2023-05-19T01:19:03;101863;;;16.35;53.10
57250;BME280;43102;52.014;-0.680;2023-05-19T01:20:19;101863;;;16.35;53.10
57250;BME280;43102;52.014;-0.680;2023-05-19T01:21:09;101866;;;16.35;53.14
57250;BME280;43102;52.014;-0.680;2023-05-19T01:22:18;101866;;;16.35;53.14
57250;BME280;43102;52.014;-0.680;2023-05-19T01:24:22;101866;;;16.35;53.14
57250;BME280;43102;52.014;-0.680;2023-05-19T01:26:08;101868;;;16.28;53.33
57250;BME280;43102;52.014;-0.680;2023-05-19T01:27:06;101868;;;16.28;53.33
57250;BME280;43102;52.014;-0.680;2023-05-19T01:31:00;101866;;;16.23;53.05
57250;BME280;43102;52.014;-0.680;2023-05-19T01:32:00;101866;;;16.23;53.05
57250;BME280;43102;52.014;-0.680;2023-05-19T01:33:01;101866;;;16.23;53.05
57250;BME280;43102;52.014;-0.680;2023-05-19T01:34:00;101866;;;16.23;53.05
57250;BME280;43102;52.014;-0.680;2023-05-19T01:35:00;101866;;;16.23;53.05
57250;BME280;43102;52.014;-0.680;2023-05-19T01:36:01;101869;;;16.06;53.17
57250;BME280;43102;52.014;-0.680;2023-05-19T01:37:00;101869;;;16.06;53.17
57250;BME280;43102;52.014;-0.680;2023-05-19T01:38:00;101869;;;16.06;53.17
57250;BME280;43102;52.014;-0.680;2023-05-19T01:39:02;101869;;;16.06;53.17
57250;BME280;43102;52.014;-0.680;2023-05-19T01:40:00;101869;;;16.06;53.17
57250;BME280;43102;52.014;-0.680;2023-05-19T01:41:01;101864;;;15.97;53.60
57250;BME280;43102;52.014;-0.680;2023-05-19T01:42:00;101864;;;15.97;53.60
57250;BME280;43102;52.014;-0.680;2023-05-19T01:43:00;101864;;;15.97;53.60
57250;BME280;43102;52.014;-0.680;2023-05-19T01:44:00;101864;;;15.97;53.60
57250;BME280;43102;52.014;-0.680;2023-05-19T01:45:00;101864;;;15.97;53.60
57250;BME280;43102;52.014;-0.680;2023-05-19T01:46:00;101851;;;15.91;53.74
57250;BME280;43102;52.014;-0.680;2023-05-19T01:47:00;101851;;;15.91;53.74
57250;BME280;43102;52.014;-0.680;2023-05-19T01:48:01;101851;;;15.91;53.74
57250;BME280;43102;52.014;-0.680;2023-05-19T01:49:00;101851;;;15.91;53.74
57250;BME280;43102;52.014;-0.680;2023-05-19T01:50:00;101851;;;15.91;53.74
57250;BME280;43102;52.014;-0.680;2023-05-19T01:51:00;101849;;;15.88;53.89
57250;BME280;43102;52.014;-0.680;2023-05-19T01:52:00;101849;;;15.88;53.89
57250;BME280;43102;52.014;-0.680;2023-05-19T01:53:00;101849;;;15.88;53.89
57250;BME280;43102;52.014;-0.680;2023-05-19T01:54:00;101849;;;15.88;53.89
57250;BME280;43102;52.014;-0.680;2023-05-19T01:55:00;101849;;;15.88;53.89
57250;BME280;43102;52.014;-0.680;2023-05-19T01:56:00;101852;;;15.72;54.23
57250;BME280;43102;52.014;-0.680;2023-05-19T01:58:06;101852;;;15.72;54.23
57250;BME280;43102;52.014;-0.680;2023-05-19T01:59:02;101852;;;15.72;54.23
57250;BME280;43102;52.014;-0.680;2023-05-19T02:02:00;101841;;;15.63;54.56
57250;BME280;43102;52.014;-0.680;2023-05-19T02:03:05;101841;;;15.63;54.56
57250;BME280;43102;52.014;-0.680;2023-05-19T02:04:04;101841;;;15.63;54.56
57250;BME280;43102;52.014;-0.680;2023-05-19T02:05:02;101841;;;15.63;54.56
57250;BME280;43102;52.014;-0.680;2023-05-19T02:07:02;101840;;;15.59;54.69
57250;BME280;43102;52.014;-0.680;2023-05-19T02:08:03;101840;;;15.59;54.69
57250;BME280;43102;52.014;-0.680;2023-05-19T02:10:04;101840;;;15.59;54.69
57250;BME280;43102;52.014;-0.680;2023-05-19T02:11:02;101847;;;15.58;54.70
57250;BME280;43102;52.014;-0.680;2023-05-19T02:12:02;101847;;;15.58;54.70
57250;BME280;43102;52.014;-0.680;2023-05-19T02:13:00;101847;;;15.58;54.70
57250;BME280;43102;52.014;-0.680;2023-05-19T02:14:01;101847;;;15.58;54.70
57250;BME280;43102;52.014;-0.680;2023-05-19T02:16:02;101856;;;15.57;54.97
57250;BME280;43102;52.014;-0.680;2023-05-19T02:17:00;101856;;;15.57;54.97
57250;BME280;43102;52.014;-0.680;2023-05-19T02:18:00;101856;;;15.57;54.97
57250;BME280;43102;52.014;-0.680;2023-05-19T02:19:00;101856;;;15.57;54.97
57250;BME280;43102;52.014;-0.680;2023-05-19T02:20:00;101856;;;15.57;54.97
57250;BME280;43102;52.014;-0.680;2023-05-19T02:21:00;101856;;;15.49;55.10
57250;BME280;43102;52.014;-0.680;2023-05-19T02:22:00;101856;;;15.49;55.10
57250;BME280;43102;52.014;-0.680;2023-05-19T02:23:00;101856;;;15.49;55.10
57250;BME280;43102;52.014;-0.680;2023-05-19T02:24:00;101856;;;15.49;55.10
57250;BME280;43102;52.014;-0.680;2023-05-19T02:25:00;101856;;;15.49;55.10
57250;BME280;43102;52.014;-0.680;2023-05-19T02:26:00;101845;;;15.44;55.01
57250;BME280;43102;52.014;-0.680;2023-05-19T02:27:00;101845;;;15.44;55.01
57250;BME280;43102;52.014;-0.680;2023-05-19T02:28:00;101845;;;15.44;55.01
57250;BME280;43102;52.014;-0.680;2023-05-19T02:29:00;101845;;;15.44;55.01
57250;BME280;43102;52.014;-0.680;2023-05-19T02:30:00;101845;;;15.44;55.01
57250;BME280;43102;52.014;-0.680;2023-05-19T02:31:00;101850;;;15.50;54.94
57250;BME280;43102;52.014;-0.680;2023-05-19T02:32:00;101850;;;15.50;54.94
57250;BME280;43102;52.014;-0.680;2023-05-19T02:33:00;101850;;;15.50;54.94
57250;BME280;43102;52.014;-0.680;2023-05-19T02:34:00;101850;;;15.50;54.94
57250;BME280;43102;52.014;-0.680;2023-05-19T02:35:00;101850;;;15.50;54.94
57250;BME280;43102;52.014;-0.680;2023-05-19T02:36:00;101848;;;15.54;55.19
57250;BME280;43102;52.014;-0.680;2023-05-19T02:37:00;101848;;;15.54;55.19
57250;BME280;43102;52.014;-0.680;2023-05-19T02:38:00;101848;;;15.54;55.19
57250;BME280;43102;52.014;-0.680;2023-05-19T02:39:00;101848;;;15.54;55.19
57250;BME280;43102;52.014;-0.680;2023-05-19T02:40:00;101848;;;15.54;55.19
57250;BME280;43102;52.014;-0.680;2023-05-19T02:41:00;101851;;;15.41;55.08
57250;BME280;43102;52.014;-0.680;2023-05-19T02:42:00;101851;;;15.41;55.08
57250;BME280;43102;52.014;-0.680;2023-05-19T02:43:00;101851;;;15.41;55.08
57250;BME280;43102;52.014;-0.680;2023-05-19T02:44:00;101851;;;15.41;55.08
57250;BME280;43102;52.014;-0.680;2023-05-19T02:45:00;101851;;;15.41;55.08
57250;BME280;43102;52.014;-0.680;2023-05-19T02:46:00;101845;;;15.40;55.33
57250;BME280;43102;52.014;-0.680;2023-05-19T02:47:00;101845;;;15.40;55.33
57250;BME280;43102;52.014;-0.680;2023-05-19T02:48:00;101845;;;15.40;55.33
57250;BME280;43102;52.014;-0.680;2023-05-19T02:49:00;101845;;;15.40;55.33
57250;BME280;43102;52.014;-0.680;2023-05-19T02:50:00;101845;;;15.40;55.33
57250;BME280;43102;52.014;-0.680;2023-05-19T02:51:00;101839;;;15.47;55.29
57250;BME280;43102;52.014;-0.680;2023-05-19T02:52:01;101839;;;15.47;55.29
57250;BME280;43102;52.014;-0.680;2023-05-19T02:53:00;101839;;;15.47;55.29
57250;BME280;43102;52.014;-0.680;2023-05-19T02:54:00;101839;;;15.47;55.29
57250;BME280;43102;52.014;-0.680;2023-05-19T02:55:00;101839;;;15.47;55.29
57250;BME280;43102;52.014;-0.680;2023-05-19T02:56:00;101835;;;15.51;55.37
57250;BME280;43102;52.014;-0.680;2023-05-19T02:57:00;101835;;;15.51;55.37
57250;BME280;43102;52.014;-0.680;2023-05-19T02:58:00;101835;;;15.51;55.37
57250;BME280;43102;52.014;-0.680;2023-05-19T02:59:00;101835;;;15.51;55.37
57250;BME280;43102;52.014;-0.680;2023-05-19T03:00:00;101835;;;15.51;55.37
57250;BME280;43102;52.014;-0.680;2023-05-19T03:01:00;101847;;;15.45;55.40
57250;BME280;43102;52.014;-0.680;2023-05-19T03:02:00;101847;;;15.45;55.40
57250;BME280;43102;52.014;-0.680;2023-05-19T03:03:00;101847;;;15.45;55.40
57250;BME280;43102;52.014;-0.680;2023-05-19T03:04:00;101847;;;15.45;55.40
57250;BME280;43102;52.014;-0.680;2023-05-19T03:05:00;101847;;;15.45;55.40
57250;BME280;43102;52.014;-0.680;2023-05-19T03:06:00;101851;;;15.18;55.79
57250;BME280;43102;52.014;-0.680;2023-05-19T03:07:00;101851;;;15.18;55.79
57250;BME280;43102;52.014;-0.680;2023-05-19T03:08:00;101851;;;15.18;55.79
57250;BME280;43102;52.014;-0.680;2023-05-19T03:09:00;101851;;;15.18;55.79
57250;BME280;43102;52.014;-0.680;2023-05-19T03:10:00;101851;;;15.18;55.79
57250;BME280;43102;52.014;-0.680;2023-05-19T03:11:00;101854;;;15.12;55.87
57250;BME280;43102;52.014;-0.680;2023-05-19T03:12:00;101854;;;15.12;55.87
57250;BME280;43102;52.014;-0.680;2023-05-19T03:13:00;101854;;;15.12;55.87
57250;BME280;43102;52.014;-0.680;2023-05-19T03:14:00;101854;;;15.12;55.87
57250;BME280;43102;52.014;-0.680;2023-05-19T03:15:00;101854;;;15.12;55.87
57250;BME280;43102;52.014;-0.680;2023-05-19T03:16:00;101847;;;15.06;56.10
57250;BME280;43102;52.014;-0.680;2023-05-19T03:17:00;101847;;;15.06;56.10
57250;BME280;43102;52.014;-0.680;2023-05-19T03:18:00;101847;;;15.06;56.10
57250;BME280;43102;52.014;-0.680;2023-05-19T03:19:00;101847;;;15.06;56.10
57250;BME280;43102;52.014;-0.680;2023-05-19T03:20:00;101847;;;15.06;56.10
57250;BME280;43102;52.014;-0.680;2023-05-19T03:21:00;101843;;;15.07;56.11
57250;BME280;43102;52.014;-0.680;2023-05-19T03:22:00;101843;;;15.07;56.11
57250;BME280;43102;52.014;-0.680;2023-05-19T03:23:00;101843;;;15.07;56.11
57250;BME280;43102;52.014;-0.680;2023-05-19T03:24:00;101843;;;15.07;56.11
57250;BME280;43102;52.014;-0.680;2023-05-19T03:25:00;101843;;;15.07;56.11
57250;BME280;43102;52.014;-0.680;2023-05-19T03:26:00;101838;;;15.12;56.18
57250;BME280;43102;52.014;-0.680;2023-05-19T03:27:00;101838;;;15.12;56.18
57250;BME280;43102;52.014;-0.680;2023-05-19T03:28:00;101838;;;15.12;56.18
57250;BME280;43102;52.014;-0.680;2023-05-19T03:29:00;101838;;;15.12;56.18
57250;BME280;43102;52.014;-0.680;2023-05-19T03:30:00;101838;;;15.12;56.18
57250;BME280;43102;52.014;-0.680;2023-05-19T03:31:00;101843;;;15.16;56.19
57250;BME280;43102;52.014;-0.680;2023-05-19T03:32:00;101843;;;15.16;56.19
57250;BME280;43102;52.014;-0.680;2023-05-19T03:33:00;101843;;;15.16;56.19
57250;BME280;43102;52.014;-0.680;2023-05-19T03:34:00;101843;;;15.16;56.19
57250;BME280;43102;52.014;-0.680;2023-05-19T03:35:00;101843;;;15.16;56.19
57250;BME280;43102;52.014;-0.680;2023-05-19T03:36:00;101846;;;15.15;56.36
57250;BME280;43102;52.014;-0.680;2023-05-19T03:37:00;101846;;;15.15;56.36
57250;BME280;43102;52.014;-0.680;2023-05-19T03:38:00;101846;;;15.15;56.36
57250;BME280;43102;52.014;-0.680;2023-05-19T03:39:00;101846;;;15.15;56.36
57250;BME280;43102;52.014;-0.680;2023-05-19T03:40:00;101846;;;15.15;56.36
57250;BME280;43102;52.014;-0.680;2023-05-19T03:41:00;101847;;;15.17;56.33
57250;BME280;43102;52.014;-0.680;2023-05-19T03:42:00;101847;;;15.17;56.33
57250;BME280;43102;52.014;-0.680;2023-05-19T03:43:00;101847;;;15.17;56.33
57250;BME280;43102;52.014;-0.680;2023-05-19T03:44:00;101847;;;15.17;56.33
57250;BME280;43102;52.014;-0.680;2023-05-19T03:45:00;101847;;;15.17;56.33
57250;BME280;43102;52.014;-0.680;2023-05-19T03:46:00;101848;;;15.00;56.61
57250;BME280;43102;52.014;-0.680;2023-05-19T03:47:00;101848;;;15.00;56.61
57250;BME280;43102;52.014;-0.680;2023-05-19T03:48:00;101848;;;15.00;56.61
57250;BME280;43102;52.014;-0.680;2023-05-19T03:49:00;101848;;;15.00;56.61
57250;BME280;43102;52.014;-0.680;2023-05-19T03:50:00;101848;;;15.00;56.61
57250;BME280;43102;52.014;-0.680;2023-05-19T03:51:00;101838;;;14.90;56.64
57250;BME280;43102;52.014;-0.680;2023-05-19T03:52:00;101838;;;14.90;56.64
57250;BME280;43102;52.014;-0.680;2023-05-19T03:53:00;101838;;;14.90;56.64
57250;BME280;43102;52.014;-0.680;2023-05-19T03:54:00;101838;;;14.90;56.64
57250;BME280;43102;52.014;-0.680;2023-05-19T03:55:00;101838;;;14.90;56.64
57250;BME280;43102;52.014;-0.680;2023-05-19T03:56:00;101825;;;14.90;56.80
57250;BME280;43102;52.014;-0.680;2023-05-19T03:57:00;101825;;;14.90;56.80
57250;BME280;43102;52.014;-0.680;2023-05-19T03:58:00;101825;;;14.90;56.80
57250;BME280;43102;52.014;-0.680;2023-05-19T03:59:00;101825;;;14.90;56.80
57250;BME280;43102;52.014;-0.680;2023-05-19T04:00:00;101825;;;14.90;56.80
57250;BME280;43102;52.014;-0.680;2023-05-19T04:01:00;101823;;;14.92;57.20
57250;BME280;43102;52.014;-0.680;2023-05-19T04:02:00;101823;;;14.92;57.20
57250;BME280;43102;52.014;-0.680;2023-05-19T04:03:00;101823;;;14.92;57.20
57250;BME280;43102;52.014;-0.680;2023-05-19T04:04:00;101823;;;14.92;57.20
57250;BME280;43102;52.014;-0.680;2023-05-19T04:05:00;101823;;;14.92;57.20
57250;BME280;43102;52.014;-0.680;2023-05-19T04:06:00;101823;;;14.80;57.66
57250;BME280;43102;52.014;-0.680;2023-05-19T04:07:00;101823;;;14.80;57.66
57250;BME280;43102;52.014;-0.680;2023-05-19T04:08:00;101823;;;14.80;57.66
57250;BME280;43102;52.014;-0.680;2023-05-19T04:09:00;101823;;;14.80;57.66
57250;BME280;43102;52.014;-0.680;2023-05-19T04:10:01;101823;;;14.80;57.66
57250;BME280;43102;52.014;-0.680;2023-05-19T04:11:00;101817;;;14.72;57.84
57250;BME280;43102;52.014;-0.680;2023-05-19T04:12:00;101817;;;14.72;57.84
57250;BME280;43102;52.014;-0.680;2023-05-19T04:13:00;101817;;;14.72;57.84
57250;BME280;43102;52.014;-0.680;2023-05-19T04:14:02;101817;;;14.72;57.84
57250;BME280;43102;52.014;-0.680;2023-05-19T04:15:00;101817;;;14.72;57.84
57250;BME280;43102;52.014;-0.680;2023-05-19T04:16:00;101817;;;14.77;57.88
57250;BME280;43102;52.014;-0.680;2023-05-19T04:17:00;101817;;;14.77;57.88
57250;BME280;43102;52.014;-0.680;2023-05-19T04:18:00;101817;;;14.77;57.88
57250;BME280;43102;52.014;-0.680;2023-05-19T04:19:00;101817;;;14.77;57.88
57250;BME280;43102;52.014;-0.680;2023-05-19T04:20:00;101817;;;14.77;57.88
57250;BME280;43102;52.014;-0.680;2023-05-19T04:21:00;101827;;;14.83;57.99
57250;BME280;43102;52.014;-0.680;2023-05-19T04:22:00;101827;;;14.83;57.99
57250;BME280;43102;52.014;-0.680;2023-05-19T04:23:00;101827;;;14.83;57.99
57250;BME280;43102;52.014;-0.680;2023-05-19T04:24:00;101827;;;14.83;57.99
57250;BME280;43102;52.014;-0.680;2023-05-19T04:25:00;101827;;;14.83;57.99
57250;BME280;43102;52.014;-0.680;2023-05-19T04:26:00;101829;;;14.88;58.09
57250;BME280;43102;52.014;-0.680;2023-05-19T04:27:00;101829;;;14.88;58.09
57250;BME280;43102;52.014;-0.680;2023-05-19T04:28:00;101829;;;14.88;58.09
57250;BME280;43102;52.014;-0.680;2023-05-19T04:29:00;101829;;;14.88;58.09
57250;BME280;43102;52.014;-0.680;2023-05-19T04:30:00;101829;;;14.88;58.09
57250;BME280;43102;52.014;-0.680;2023-05-19T04:31:00;101821;;;14.89;58.10
57250;BME280;43102;52.014;-0.680;2023-05-19T04:32:00;101821;;;14.89;58.10
57250;BME280;43102;52.014;-0.680;2023-05-19T04:33:00;101821;;;14.89;58.10
57250;BME280;43102;52.014;-0.680;2023-05-19T04:34:00;101821;;;14.89;58.10
57250;BME280;43102;52.014;-0.680;2023-05-19T04:35:00;101821;;;14.89;58.10
57250;BME280;43102;52.014;-0.680;2023-05-19T04:36:00;101816;;;14.87;58.15
57250;BME280;43102;52.014;-0.680;2023-05-19T04:37:00;101816;;;14.87;58.15
57250;BME280;43102;52.014;-0.680;2023-05-19T04:38:00;101816;;;14.87;58.15
57250;BME280;43102;52.014;-0.680;2023-05-19T04:39:00;101816;;;14.87;58.15
57250;BME280;43102;52.014;-0.680;2023-05-19T04:40:00;101816;;;14.87;58.15
57250;BME280;43102;52.014;-0.680;2023-05-19T04:41:00;101825;;;14.92;58.06
57250;BME280;43102;52.014;-0.680;2023-05-19T04:42:00;101825;;;14.92;58.06
57250;BME280;43102;52.014;-0.680;2023-05-19T04:43:00;101825;;;14.92;58.06
57250;BME280;43102;52.014;-0.680;2023-05-19T04:44:00;101825;;;14.92;58.06
57250;BME280;43102;52.014;-0.680;2023-05-19T04:45:00;101825;;;14.92;58.06
57250;BME280;43102;52.014;-0.680;2023-05-19T04:46:00;101824;;;14.94;58.30
57250;BME280;43102;52.014;-0.680;2023-05-19T04:47:00;101824;;;14.94;58.30
57250;BME280;43102;52.014;-0.680;2023-05-19T04:48:00;101824;;;14.94;58.30
57250;BME280;43102;52.014;-0.680;2023-05-19T04:49:00;101824;;;14.94;58.30
57250;BME280;43102;52.014;-0.680;2023-05-19T04:50:00;101824;;;14.94;58.30
57250;BME280;43102;52.014;-0.680;2023-05-19T04:51:00;101826;;;14.95;58.25
57250;BME280;43102;52.014;-0.680;2023-05-19T04:52:00;101826;;;14.95;58.25
57250;BME280;43102;52.014;-0.680;2023-05-19T04:53:00;101826;;;14.95;58.25
57250;BME280;43102;52.014;-0.680;2023-05-19T04:54:00;101826;;;14.95;58.25
57250;BME280;43102;52.014;-0.680;2023-05-19T04:55:00;101826;;;14.95;58.25
57250;BME280;43102;52.014;-0.680;2023-05-19T04:56:00;101842;;;14.96;58.47
57250;BME280;43102;52.014;-0.680;2023-05-19T04:57:00;101842;;;14.96;58.47
57250;BME280;43102;52.014;-0.680;2023-05-19T04:58:00;101842;;;14.96;58.47
57250;BME280;43102;52.014;-0.680;2023-05-19T04:59:00;101842;;;14.96;58.47
57250;BME280;43102;52.014;-0.680;2023-05-19T05:00:00;101842;;;14.96;58.47
57250;BME280;43102;52.014;-0.680;2023-05-19T05:01:00;101833;;;15.00;58.40
57250;BME280;43102;52.014;-0.680;2023-05-19T05:02:00;101833;;;15.00;58.40
57250;BME280;43102;52.014;-0.680;2023-05-19T05:03:00;101833;;;15.00;58.40
57250;BME280;43102;52.014;-0.680;2023-05-19T05:04:00;101833;;;15.00;58.40
57250;BME280;43102;52.014;-0.680;2023-05-19T05:05:00;101833;;;15.00;58.40
57250;BME280;43102;52.014;-0.680;2023-05-19T05:06:00;101837;;;14.97;58.26
57250;BME280;43102;52.014;-0.680;2023-05-19T05:07:00;101837;;;14.97;58.26
57250;BME280;43102;52.014;-0.680;2023-05-19T05:08:00;101837;;;14.97;58.26
57250;BME280;43102;52.014;-0.680;2023-05-19T05:09:00;101837;;;14.97;58.26
57250;BME280;43102;52.014;-0.680;2023-05-19T05:10:00;101837;;;14.97;58.26
57250;BME280;43102;52.014;-0.680;2023-05-19T05:11:00;101835;;;14.98;58.25
57250;BME280;43102;52.014;-0.680;2023-05-19T05:12:00;101835;;;14.98;58.25
57250;BME280;43102;52.014;-0.680;2023-05-19T05:13:00;101835;;;14.98;58.25
57250;BME280;43102;52.014;-0.680;2023-05-19T05:14:00;101835;;;14.98;58.25
57250;BME280;43102;52.014;-0.680;2023-05-19T05:15:00;101835;;;14.98;58.25
57250;BME280;43102;52.014;-0.680;2023-05-19T05:16:00;101834;;;15.05;58.16
57250;BME280;43102;52.014;-0.680;2023-05-19T05:17:00;101834;;;15.05;58.16
57250;BME280;43102;52.014;-0.680;2023-05-19T05:18:00;101834;;;15.05;58.16
57250;BME280;43102;52.014;-0.680;2023-05-19T05:19:00;101834;;;15.05;58.16
57250;BME280;43102;52.014;-0.680;2023-05-19T05:20:00;101834;;;15.05;58.16
57250;BME280;43102;52.014;-0.680;2023-05-19T05:21:00;101828;;;14.97;58.04
57250;BME280;43102;52.014;-0.680;2023-05-19T05:22:00;101828;;;14.97;58.04
57250;BME280;43102;52.014;-0.680;2023-05-19T05:23:00;101828;;;14.97;58.04
57250;BME280;43102;52.014;-0.680;2023-05-19T05:24:00;101828;;;14.97;58.04
57250;BME280;43102;52.014;-0.680;2023-05-19T05:25:00;101828;;;14.97;58.04
57250;BME280;43102;52.014;-0.680;2023-05-19T05:26:00;101825;;;14.99;58.15
57250;BME280;43102;52.014;-0.680;2023-05-19T05:27:00;101825;;;14.99;58.15
57250;BME280;43102;52.014;-0.680;2023-05-19T05:28:00;101825;;;14.99;58.15
57250;BME280;43102;52.014;-0.680;2023-05-19T05:29:00;101825;;;14.99;58.15
57250;BME280;43102;52.014;-0.680;2023-05-19T05:30:00;101825;;;14.99;58.15
57250;BME280;43102;52.014;-0.680;2023-05-19T05:31:00;101826;;;14.92;58.34
57250;BME280;43102;52.014;-0.680;2023-05-19T05:32:00;101826;;;14.92;58.34
57250;BME280;43102;52.014;-0.680;2023-05-19T05:33:00;101826;;;14.92;58.34